BAW3EM EDDF-EGLL
Flight info
| Callsign | BAW3EM |
|---|---|
| Flight time | 1h 50m |
| Altitude | 38000 |
| Route | OBOKA5G/25C OBOKA Z29 TORNU DCT ABNED L980 LOGAN |
| Aircraft | B77W/H-SDE1E2E3FGHIJ2J3J4J5M1RWXY/LB1D1 |
Departure
| Time | 2026-05-04 14:26 |
|---|---|
| Airport | Frankfurt Main Airport (EDDF) |
Arrival
| Time | 2026-05-04 16:16 |
|---|---|
| Airport | London Heathrow Airport (EGLL) |
| Time | Latitude | Longitude | Altitude | Speed | Heading |
|---|---|---|---|---|---|
| 2026-05-04 13:58 | 50.04927 | 8.58182 | 357 ft | 0 kts | 340° |
| 2026-05-04 14:15 | 50.04918 | 8.58187 | 357 ft | 3 kts | 340° |
| 2026-05-04 14:15 | 50.04885 | 8.58207 | 361 ft | 2 kts | 340° |
| 2026-05-04 14:16 | 50.04854 | 8.58198 | 364 ft | 3 kts | 59° |
| 2026-05-04 14:16 | 50.04845 | 8.58170 | 365 ft | 3 kts | 69° |
| 2026-05-04 14:17 | 50.04840 | 8.58150 | 365 ft | 2 kts | 69° |
| 2026-05-04 14:17 | 50.04840 | 8.58151 | 365 ft | 0 kts | 69° |
| 2026-05-04 14:21 | 50.04852 | 8.58221 | 361 ft | 6 kts | 82° |
| 2026-05-04 14:21 | 50.04860 | 8.58305 | 361 ft | 9 kts | 75° |
| 2026-05-04 14:21 | 50.04885 | 8.58407 | 357 ft | 11 kts | 69° |
| 2026-05-04 14:21 | 50.04915 | 8.58531 | 352 ft | 14 kts | 69° |
| 2026-05-04 14:22 | 50.04933 | 8.58630 | 359 ft | 8 kts | 99° |
| 2026-05-04 14:22 | 50.04885 | 8.58687 | 353 ft | 10 kts | 160° |
| 2026-05-04 14:22 | 50.04806 | 8.58732 | 335 ft | 14 kts | 159° |
| 2026-05-04 14:22 | 50.04716 | 8.58768 | 330 ft | 9 kts | 179° |
| 2026-05-04 14:23 | 50.04659 | 8.58760 | 331 ft | 0 kts | 186° |
| 2026-05-04 14:23 | 50.04646 | 8.58758 | 329 ft | 3 kts | 186° |
| 2026-05-04 14:24 | 50.04615 | 8.58744 | 327 ft | 6 kts | 204° |
| 2026-05-04 14:24 | 50.04576 | 8.58703 | 325 ft | 7 kts | 217° |
| 2026-05-04 14:24 | 50.04536 | 8.58656 | 328 ft | 7 kts | 217° |
| 2026-05-04 14:24 | 50.04504 | 8.58612 | 330 ft | 5 kts | 227° |
| 2026-05-04 14:25 | 50.04490 | 8.58581 | 330 ft | 2 kts | 240° |
| 2026-05-04 14:25 | 50.04420 | 8.58304 | 335 ft | 49 kts | 250° |
| 2026-05-04 14:25 | 50.04199 | 8.57380 | 353 ft | 130 kts | 250° |
| 2026-05-04 14:26 | 50.03808 | 8.55772 | 542 ft | 171 kts | 248° |
| 2026-05-04 14:26 | 50.03381 | 8.54043 | 1355 ft | 174 kts | 249° |
| 2026-05-04 14:26 | 50.02954 | 8.52347 | 2269 ft | 171 kts | 250° |
| 2026-05-04 14:26 | 50.02698 | 8.50426 | 2636 ft | 197 kts | 272° |
| 2026-05-04 14:27 | 50.02844 | 8.48150 | 2925 ft | 228 kts | 275° |
| 2026-05-04 14:27 | 50.03007 | 8.45599 | 3571 ft | 244 kts | 275° |
| 2026-05-04 14:27 | 50.02959 | 8.42949 | 4456 ft | 251 kts | 261° |
| 2026-05-04 14:27 | 50.02627 | 8.40293 | 4980 ft | 253 kts | 258° |
| 2026-05-04 14:28 | 50.02259 | 8.37552 | 5009 ft | 264 kts | 258° |
| 2026-05-04 14:28 | 50.01903 | 8.34760 | 5108 ft | 264 kts | 259° |
| 2026-05-04 14:28 | 50.01551 | 8.31953 | 5756 ft | 266 kts | 258° |
| 2026-05-04 14:28 | 50.01263 | 8.29141 | 6742 ft | 268 kts | 266° |
| 2026-05-04 14:29 | 50.02483 | 8.23620 | 7940 ft | 281 kts | 292° |
| 2026-05-04 14:29 | 50.05160 | 8.19133 | 8000 ft | 297 kts | 329° |
| 2026-05-04 14:30 | 50.07016 | 8.17717 | 7974 ft | 297 kts | 332° |
| 2026-05-04 14:30 | 50.08891 | 8.16398 | 7962 ft | 295 kts | 333° |
| 2026-05-04 14:30 | 50.12564 | 8.13621 | 7997 ft | 290 kts | 321° |
| 2026-05-04 14:31 | 50.14145 | 8.11679 | 8587 ft | 290 kts | 316° |
| 2026-05-04 14:31 | 50.17250 | 8.07498 | 10270 ft | 302 kts | 316° |
| 2026-05-04 14:32 | 50.20723 | 8.02899 | 10898 ft | 356 kts | 317° |
| 2026-05-04 14:32 | 50.22673 | 8.00372 | 11571 ft | 370 kts | 318° |
| 2026-05-04 14:32 | 50.24634 | 7.97859 | 12526 ft | 377 kts | 318° |
| 2026-05-04 14:32 | 50.26681 | 7.95252 | 13645 ft | 382 kts | 319° |
| 2026-05-04 14:33 | 50.28757 | 7.92614 | 14638 ft | 387 kts | 319° |
| 2026-05-04 14:33 | 50.30866 | 7.89935 | 15611 ft | 393 kts | 319° |
| 2026-05-04 14:33 | 50.33000 | 7.87223 | 16598 ft | 399 kts | 318° |
| 2026-05-04 14:33 | 50.35178 | 7.84451 | 17561 ft | 406 kts | 318° |
| 2026-05-04 14:34 | 50.37388 | 7.81634 | 18481 ft | 412 kts | 318° |
| 2026-05-04 14:34 | 50.39630 | 7.78773 | 19343 ft | 416 kts | 318° |
| 2026-05-04 14:34 | 50.41852 | 7.75935 | 19943 ft | 420 kts | 318° |
| 2026-05-04 14:34 | 50.44121 | 7.73032 | 19984 ft | 423 kts | 318° |
| 2026-05-04 14:35 | 50.46402 | 7.70111 | 20024 ft | 425 kts | 318° |
| 2026-05-04 14:35 | 50.48698 | 7.67166 | 20806 ft | 428 kts | 317° |
| 2026-05-04 14:35 | 50.51011 | 7.64195 | 21754 ft | 430 kts | 317° |
| 2026-05-04 14:35 | 50.53340 | 7.61200 | 22631 ft | 433 kts | 317° |
| 2026-05-04 14:36 | 50.55687 | 7.58176 | 23421 ft | 438 kts | 317° |
| 2026-05-04 14:36 | 50.58058 | 7.55116 | 24090 ft | 444 kts | 317° |
| 2026-05-04 14:36 | 50.60459 | 7.52015 | 24767 ft | 448 kts | 317° |
| 2026-05-04 14:36 | 50.62871 | 7.48897 | 25501 ft | 451 kts | 316° |
| 2026-05-04 14:37 | 50.65306 | 7.45746 | 26233 ft | 454 kts | 316° |
| 2026-05-04 14:37 | 50.67759 | 7.42566 | 26866 ft | 459 kts | 316° |
| 2026-05-04 14:37 | 50.70245 | 7.39337 | 27483 ft | 464 kts | 316° |
| 2026-05-04 14:37 | 50.72601 | 7.35958 | 28078 ft | 464 kts | 309° |
| 2026-05-04 14:38 | 50.74687 | 7.32081 | 28711 ft | 464 kts | 303° |
| 2026-05-04 14:38 | 50.76504 | 7.27867 | 29315 ft | 463 kts | 296° |
| 2026-05-04 14:38 | 50.78015 | 7.23365 | 29857 ft | 464 kts | 292° |
| 2026-05-04 14:38 | 50.79457 | 7.18782 | 30328 ft | 468 kts | 292° |
| 2026-05-04 14:39 | 50.80905 | 7.14161 | 30814 ft | 470 kts | 292° |
| 2026-05-04 14:39 | 50.82366 | 7.09555 | 31507 ft | 467 kts | 292° |
| 2026-05-04 14:39 | 50.83828 | 7.05008 | 32325 ft | 461 kts | 292° |
| 2026-05-04 14:40 | 50.86712 | 6.96059 | 33552 ft | 459 kts | 292° |
| 2026-05-04 14:40 | 50.88158 | 6.91572 | 34169 ft | 456 kts | 292° |
| 2026-05-04 14:40 | 50.89596 | 6.87114 | 34659 ft | 454 kts | 292° |
| 2026-05-04 14:40 | 50.91028 | 6.82662 | 35073 ft | 454 kts | 292° |
| 2026-05-04 14:41 | 50.92464 | 6.78190 | 35475 ft | 454 kts | 292° |
| 2026-05-04 14:41 | 50.93895 | 6.73726 | 35883 ft | 454 kts | 292° |
| 2026-05-04 14:41 | 50.96756 | 6.64764 | 35998 ft | 460 kts | 292° |
| 2026-05-04 14:42 | 50.99623 | 6.55769 | 35980 ft | 454 kts | 292° |
| 2026-05-04 14:42 | 51.02457 | 6.46839 | 35983 ft | 452 kts | 292° |
| 2026-05-04 14:43 | 51.05290 | 6.37859 | 35987 ft | 457 kts | 292° |
| 2026-05-04 14:43 | 51.08145 | 6.28798 | 35980 ft | 455 kts | 292° |
| 2026-05-04 14:44 | 51.10945 | 6.19887 | 35986 ft | 451 kts | 291° |
| 2026-05-04 14:44 | 51.13663 | 6.10880 | 35993 ft | 452 kts | 287° |
| 2026-05-04 14:45 | 51.15486 | 6.01317 | 35994 ft | 452 kts | 279° |
| 2026-05-04 14:45 | 51.16962 | 5.91654 | 35994 ft | 457 kts | 279° |
| 2026-05-04 14:46 | 51.18642 | 5.81969 | 35967 ft | 449 kts | 285° |
| 2026-05-04 14:46 | 51.21015 | 5.72787 | 35981 ft | 453 kts | 288° |
| 2026-05-04 14:47 | 51.23501 | 5.63512 | 35974 ft | 456 kts | 288° |
| 2026-05-04 14:47 | 51.25984 | 5.54147 | 35966 ft | 458 kts | 288° |
| 2026-05-04 14:48 | 51.28454 | 5.44721 | 35962 ft | 460 kts | 288° |
| 2026-05-04 14:48 | 51.30913 | 5.35278 | 35961 ft | 460 kts | 288° |
| 2026-05-04 14:49 | 51.33348 | 5.25888 | 35963 ft | 459 kts | 288° |
| 2026-05-04 14:49 | 51.35785 | 5.16451 | 35962 ft | 459 kts | 288° |
| 2026-05-04 14:50 | 51.38214 | 5.07006 | 35963 ft | 459 kts | 288° |
| 2026-05-04 14:50 | 51.40604 | 4.97677 | 35987 ft | 458 kts | 288° |
| 2026-05-04 14:51 | 51.43024 | 4.88176 | 35957 ft | 461 kts | 288° |
| 2026-05-04 14:51 | 51.45440 | 4.78668 | 35981 ft | 460 kts | 288° |
| 2026-05-04 14:52 | 51.47834 | 4.69207 | 35969 ft | 459 kts | 288° |
| 2026-05-04 14:52 | 51.50230 | 4.59694 | 35975 ft | 459 kts | 287° |
| 2026-05-04 14:53 | 51.52613 | 4.50190 | 35972 ft | 458 kts | 287° |
| 2026-05-04 14:53 | 51.54984 | 4.40692 | 35969 ft | 458 kts | 287° |
| 2026-05-04 14:54 | 51.57348 | 4.31182 | 35967 ft | 458 kts | 287° |
| 2026-05-04 14:54 | 51.59690 | 4.21722 | 35968 ft | 458 kts | 287° |
| 2026-05-04 14:55 | 51.62040 | 4.12189 | 35975 ft | 458 kts | 287° |
| 2026-05-04 14:55 | 51.64378 | 4.02658 | 35984 ft | 458 kts | 287° |
| 2026-05-04 14:56 | 51.66692 | 3.93191 | 35989 ft | 458 kts | 287° |
| 2026-05-04 14:56 | 51.69018 | 3.83629 | 36010 ft | 459 kts | 287° |
| 2026-05-04 14:57 | 51.71329 | 3.74088 | 36004 ft | 460 kts | 287° |
| 2026-05-04 14:57 | 51.73654 | 3.64448 | 36003 ft | 461 kts | 287° |
| 2026-05-04 14:58 | 51.75974 | 3.54785 | 36019 ft | 461 kts | 287° |
| 2026-05-04 14:58 | 51.77893 | 3.46761 | 36009 ft | 461 kts | 287° |
| 2026-05-04 14:59 | 51.80566 | 3.35535 | 36015 ft | 460 kts | 287° |
| 2026-05-04 15:00 | 51.83555 | 3.22644 | 35992 ft | 457 kts | 282° |
| 2026-05-04 15:00 | 51.84493 | 3.12614 | 36007 ft | 448 kts | 268° |
| 2026-05-04 15:01 | 51.83704 | 2.97768 | 36000 ft | 444 kts | 260° |
| 2026-05-04 15:01 | 51.83002 | 2.87801 | 36006 ft | 446 kts | 261° |
| 2026-05-04 15:02 | 51.82340 | 2.77828 | 35983 ft | 442 kts | 261° |
| 2026-05-04 15:02 | 51.82024 | 2.73006 | 35970 ft | 431 kts | 261° |
| 2026-05-04 15:02 | 51.81705 | 2.68214 | 35580 ft | 428 kts | 261° |
| 2026-05-04 15:03 | 51.81383 | 2.63455 | 35163 ft | 423 kts | 260° |
| 2026-05-04 15:03 | 51.81060 | 2.58749 | 34728 ft | 419 kts | 260° |
| 2026-05-04 15:03 | 51.80737 | 2.54090 | 34301 ft | 415 kts | 260° |
| 2026-05-04 15:03 | 51.80415 | 2.49467 | 33849 ft | 412 kts | 260° |
| 2026-05-04 15:04 | 51.80095 | 2.44888 | 33358 ft | 408 kts | 259° |
| 2026-05-04 15:04 | 51.79777 | 2.40351 | 32911 ft | 404 kts | 260° |
| 2026-05-04 15:04 | 51.79460 | 2.35864 | 32467 ft | 401 kts | 260° |
| 2026-05-04 15:04 | 51.79146 | 2.31420 | 32038 ft | 397 kts | 260° |
| 2026-05-04 15:05 | 51.78831 | 2.27005 | 31606 ft | 393 kts | 260° |
| 2026-05-04 15:05 | 51.78518 | 2.22628 | 31172 ft | 390 kts | 259° |
| 2026-05-04 15:05 | 51.78233 | 2.18282 | 30754 ft | 388 kts | 261° |
| 2026-05-04 15:05 | 51.77981 | 2.13967 | 30340 ft | 386 kts | 261° |
| 2026-05-04 15:06 | 51.77737 | 2.09665 | 30039 ft | 385 kts | 261° |
| 2026-05-04 15:06 | 51.77489 | 2.05352 | 30013 ft | 386 kts | 261° |
| 2026-05-04 15:07 | 51.78937 | 1.92572 | 30019 ft | 403 kts | 294° |
| 2026-05-04 15:07 | 51.82311 | 1.85391 | 29999 ft | 409 kts | 315° |
| 2026-05-04 15:07 | 51.84595 | 1.82617 | 29999 ft | 411 kts | 326° |
| 2026-05-04 15:08 | 51.87165 | 1.80558 | 29992 ft | 414 kts | 337° |
| 2026-05-04 15:08 | 51.92809 | 1.78652 | 30008 ft | 416 kts | 352° |
| 2026-05-04 15:09 | 51.98548 | 1.77929 | 30011 ft | 416 kts | 354° |
| 2026-05-04 15:09 | 52.04328 | 1.77309 | 30011 ft | 417 kts | 354° |
| 2026-05-04 15:10 | 52.13031 | 1.76450 | 30013 ft | 419 kts | 354° |
| 2026-05-04 15:11 | 52.21777 | 1.75608 | 30025 ft | 420 kts | 354° |
| 2026-05-04 15:11 | 52.27621 | 1.75046 | 30030 ft | 420 kts | 354° |
| 2026-05-04 15:12 | 52.33420 | 1.74513 | 30018 ft | 418 kts | 354° |
| 2026-05-04 15:12 | 52.39225 | 1.73997 | 30015 ft | 416 kts | 354° |
| 2026-05-04 15:13 | 52.44992 | 1.73491 | 30023 ft | 414 kts | 354° |
| 2026-05-04 15:13 | 52.50734 | 1.72992 | 30030 ft | 412 kts | 354° |
| 2026-05-04 15:14 | 52.56457 | 1.72505 | 30042 ft | 411 kts | 354° |
| 2026-05-04 15:14 | 52.62163 | 1.72032 | 30037 ft | 410 kts | 354° |
| 2026-05-04 15:15 | 52.67829 | 1.71567 | 30033 ft | 410 kts | 354° |
| 2026-05-04 15:15 | 52.73519 | 1.71100 | 30033 ft | 409 kts | 354° |
| 2026-05-04 15:16 | 52.82061 | 1.70416 | 30043 ft | 410 kts | 354° |
| 2026-05-04 15:17 | 52.90621 | 1.69757 | 30049 ft | 411 kts | 354° |
| 2026-05-04 15:17 | 52.99192 | 1.69094 | 30047 ft | 411 kts | 354° |
| 2026-05-04 15:18 | 53.04904 | 1.68622 | 30046 ft | 411 kts | 354° |
| 2026-05-04 15:19 | 53.13466 | 1.67863 | 30043 ft | 410 kts | 354° |
| 2026-05-04 15:19 | 53.22000 | 1.67087 | 30042 ft | 409 kts | 354° |
| 2026-05-04 15:20 | 53.27636 | 1.66514 | 30052 ft | 407 kts | 355° |
| 2026-05-04 15:20 | 53.33313 | 1.65780 | 30030 ft | 405 kts | 354° |
| 2026-05-04 15:21 | 53.38884 | 1.65037 | 30038 ft | 403 kts | 354° |
| 2026-05-04 15:22 | 53.47239 | 1.63909 | 30048 ft | 401 kts | 354° |
| 2026-05-04 15:22 | 53.55592 | 1.62777 | 30048 ft | 402 kts | 354° |
| 2026-05-04 15:23 | 53.61179 | 1.62022 | 30054 ft | 403 kts | 354° |
| 2026-05-04 15:23 | 53.66785 | 1.61258 | 30049 ft | 405 kts | 354° |
| 2026-05-04 15:24 | 53.77970 | 1.59555 | 30045 ft | 397 kts | 354° |
| 2026-05-04 15:25 | 53.83429 | 1.58509 | 30051 ft | 393 kts | 354° |
| 2026-05-04 15:26 | 53.91565 | 1.56909 | 30042 ft | 394 kts | 354° |
| 2026-05-04 15:26 | 53.99726 | 1.55181 | 30051 ft | 394 kts | 354° |
| 2026-05-04 15:27 | 54.07892 | 1.53405 | 30049 ft | 393 kts | 354° |
| 2026-05-04 15:28 | 54.16026 | 1.51619 | 30052 ft | 392 kts | 354° |
| 2026-05-04 15:29 | 54.24147 | 1.49828 | 30050 ft | 391 kts | 354° |
| 2026-05-04 15:30 | 54.34879 | 1.47286 | 30032 ft | 389 kts | 339° |
| 2026-05-04 15:30 | 54.39190 | 1.36317 | 30053 ft | 402 kts | 268° |
| 2026-05-04 15:31 | 54.36930 | 1.27701 | 30054 ft | 410 kts | 221° |
| 2026-05-04 15:31 | 54.34554 | 1.24997 | 30065 ft | 412 kts | 206° |
| 2026-05-04 15:32 | 54.26328 | 1.20457 | 30044 ft | 418 kts | 187° |
| 2026-05-04 15:32 | 54.20537 | 1.20077 | 30059 ft | 416 kts | 176° |
| 2026-05-04 15:34 | 54.06262 | 1.22422 | 30045 ft | 408 kts | 172° |
| 2026-05-04 15:34 | 53.97818 | 1.23959 | 30059 ft | 405 kts | 172° |
| 2026-05-04 15:35 | 53.89454 | 1.25434 | 30047 ft | 404 kts | 172° |
| 2026-05-04 15:36 | 53.81075 | 1.26898 | 30046 ft | 403 kts | 172° |
| 2026-05-04 15:36 | 53.75484 | 1.27872 | 30046 ft | 405 kts | 172° |
| 2026-05-04 15:37 | 53.69880 | 1.28847 | 30058 ft | 404 kts | 173° |
| 2026-05-04 15:37 | 53.64293 | 1.29814 | 30039 ft | 403 kts | 173° |
| 2026-05-04 15:38 | 53.58733 | 1.30775 | 30037 ft | 401 kts | 173° |
| 2026-05-04 15:38 | 53.53200 | 1.31728 | 30038 ft | 399 kts | 173° |
| 2026-05-04 15:39 | 53.47688 | 1.32675 | 30048 ft | 398 kts | 173° |
| 2026-05-04 15:40 | 53.39431 | 1.34090 | 30046 ft | 398 kts | 173° |
| 2026-05-04 15:40 | 53.33913 | 1.35033 | 30052 ft | 399 kts | 173° |
| 2026-05-04 15:41 | 53.28384 | 1.35975 | 30050 ft | 400 kts | 174° |
| 2026-05-04 15:41 | 53.22876 | 1.36912 | 30053 ft | 400 kts | 175° |
| 2026-05-04 15:42 | 53.17350 | 1.37849 | 30041 ft | 398 kts | 176° |
| 2026-05-04 15:42 | 53.11868 | 1.38775 | 30033 ft | 394 kts | 176° |
| 2026-05-04 15:43 | 53.06417 | 1.39694 | 30030 ft | 391 kts | 176° |
| 2026-05-04 15:43 | 53.01013 | 1.40602 | 30034 ft | 390 kts | 176° |
| 2026-05-04 15:44 | 52.95625 | 1.41507 | 30040 ft | 388 kts | 176° |
| 2026-05-04 15:44 | 52.90288 | 1.42399 | 30043 ft | 388 kts | 176° |
| 2026-05-04 15:45 | 52.84918 | 1.43295 | 30047 ft | 388 kts | 176° |
| 2026-05-04 15:45 | 52.79531 | 1.44191 | 30039 ft | 389 kts | 176° |
| 2026-05-04 15:46 | 52.74134 | 1.45087 | 30031 ft | 390 kts | 176° |
| 2026-05-04 15:46 | 52.69641 | 1.45832 | 30049 ft | 391 kts | 176° |
| 2026-05-04 15:47 | 52.64223 | 1.46728 | 30053 ft | 391 kts | 176° |
| 2026-05-04 15:47 | 52.58802 | 1.47622 | 30045 ft | 391 kts | 176° |
| 2026-05-04 15:48 | 52.53382 | 1.48514 | 30037 ft | 391 kts | 176° |
| 2026-05-04 15:48 | 52.45286 | 1.49842 | 30008 ft | 386 kts | 176° |
| 2026-05-04 15:49 | 52.42628 | 1.50279 | 29765 ft | 381 kts | 176° |
| 2026-05-04 15:49 | 52.39995 | 1.50710 | 29382 ft | 380 kts | 176° |
| 2026-05-04 15:49 | 52.37366 | 1.51138 | 28966 ft | 379 kts | 176° |
| 2026-05-04 15:49 | 52.34739 | 1.51566 | 28574 ft | 378 kts | 177° |
| 2026-05-04 15:50 | 52.32125 | 1.51991 | 28221 ft | 377 kts | 177° |
| 2026-05-04 15:50 | 52.29524 | 1.52415 | 27884 ft | 375 kts | 177° |
| 2026-05-04 15:50 | 52.26961 | 1.52831 | 27581 ft | 373 kts | 176° |
| 2026-05-04 15:50 | 52.24391 | 1.53248 | 27327 ft | 370 kts | 176° |
| 2026-05-04 15:51 | 52.21838 | 1.53662 | 27023 ft | 368 kts | 176° |
| 2026-05-04 15:51 | 52.19287 | 1.54074 | 26668 ft | 367 kts | 176° |
| 2026-05-04 15:51 | 52.16744 | 1.54485 | 26327 ft | 367 kts | 176° |
| 2026-05-04 15:51 | 52.14208 | 1.54895 | 26002 ft | 366 kts | 176° |
| 2026-05-04 15:52 | 52.11674 | 1.55303 | 25698 ft | 364 kts | 176° |
| 2026-05-04 15:52 | 52.09150 | 1.55710 | 25399 ft | 363 kts | 176° |
| 2026-05-04 15:52 | 52.06639 | 1.56115 | 25121 ft | 361 kts | 177° |
| 2026-05-04 15:52 | 52.04156 | 1.56515 | 25066 ft | 356 kts | 177° |
| 2026-05-04 15:53 | 52.01722 | 1.56905 | 25026 ft | 357 kts | 176° |
| 2026-05-04 15:53 | 51.99253 | 1.57300 | 25024 ft | 358 kts | 176° |
| 2026-05-04 15:53 | 51.96766 | 1.57698 | 25018 ft | 360 kts | 176° |
| 2026-05-04 15:53 | 51.94272 | 1.58097 | 25015 ft | 361 kts | 176° |
| 2026-05-04 15:54 | 51.91772 | 1.58497 | 25011 ft | 361 kts | 176° |
| 2026-05-04 15:54 | 51.89264 | 1.58898 | 25008 ft | 362 kts | 176° |
| 2026-05-04 15:54 | 51.86759 | 1.59298 | 25008 ft | 362 kts | 176° |
| 2026-05-04 15:54 | 51.84255 | 1.59697 | 25007 ft | 362 kts | 176° |
| 2026-05-04 15:55 | 51.81750 | 1.60084 | 25001 ft | 358 kts | 179° |
| 2026-05-04 15:55 | 51.79307 | 1.59660 | 25001 ft | 352 kts | 199° |
| 2026-05-04 15:55 | 51.77137 | 1.57879 | 25005 ft | 351 kts | 217° |
| 2026-05-04 15:55 | 51.75445 | 1.55066 | 25010 ft | 351 kts | 234° |
| 2026-05-04 15:56 | 51.74269 | 1.51612 | 24872 ft | 352 kts | 249° |
| 2026-05-04 15:56 | 51.73781 | 1.47751 | 24475 ft | 352 kts | 261° |
| 2026-05-04 15:56 | 51.73539 | 1.43865 | 24056 ft | 352 kts | 262° |
| 2026-05-04 15:56 | 51.73324 | 1.39931 | 23614 ft | 352 kts | 262° |
| 2026-05-04 15:57 | 51.73106 | 1.36009 | 23156 ft | 351 kts | 262° |
| 2026-05-04 15:57 | 51.72876 | 1.32107 | 22717 ft | 348 kts | 262° |
| 2026-05-04 15:57 | 51.72635 | 1.28235 | 22298 ft | 346 kts | 262° |
| 2026-05-04 15:57 | 51.72385 | 1.24384 | 21870 ft | 344 kts | 262° |
| 2026-05-04 15:58 | 51.72132 | 1.20549 | 21435 ft | 343 kts | 262° |
| 2026-05-04 15:58 | 51.71876 | 1.16738 | 21017 ft | 341 kts | 262° |
| 2026-05-04 15:58 | 51.71619 | 1.12945 | 20604 ft | 340 kts | 262° |
| 2026-05-04 15:58 | 51.71361 | 1.09169 | 20205 ft | 338 kts | 262° |
| 2026-05-04 15:59 | 51.71104 | 1.05404 | 19802 ft | 337 kts | 262° |
| 2026-05-04 15:59 | 51.70846 | 1.01645 | 19405 ft | 336 kts | 262° |
| 2026-05-04 15:59 | 51.70595 | 0.98008 | 19029 ft | 334 kts | 262° |
| 2026-05-04 15:59 | 51.70337 | 0.94292 | 18672 ft | 332 kts | 262° |
| 2026-05-04 16:00 | 51.70081 | 0.90604 | 18317 ft | 330 kts | 262° |
| 2026-05-04 16:00 | 51.69825 | 0.86933 | 17901 ft | 329 kts | 262° |
| 2026-05-04 16:00 | 51.69570 | 0.83287 | 17513 ft | 327 kts | 262° |
| 2026-05-04 16:00 | 51.69316 | 0.79656 | 17129 ft | 324 kts | 262° |
| 2026-05-04 16:01 | 51.69064 | 0.76055 | 16746 ft | 322 kts | 262° |
| 2026-05-04 16:01 | 51.68813 | 0.72521 | 16340 ft | 321 kts | 262° |
| 2026-05-04 16:01 | 51.68557 | 0.68908 | 15979 ft | 319 kts | 262° |
| 2026-05-04 16:01 | 51.68307 | 0.65424 | 15627 ft | 316 kts | 262° |
| 2026-05-04 16:02 | 51.68056 | 0.61920 | 15306 ft | 313 kts | 262° |
| 2026-05-04 16:02 | 51.67806 | 0.58447 | 14912 ft | 313 kts | 262° |
| 2026-05-04 16:02 | 51.67303 | 0.51503 | 14181 ft | 310 kts | 262° |
| 2026-05-04 16:03 | 51.67052 | 0.48063 | 13832 ft | 309 kts | 262° |
| 2026-05-04 16:03 | 51.66803 | 0.44659 | 13612 ft | 302 kts | 263° |
| 2026-05-04 16:03 | 51.66560 | 0.41357 | 13460 ft | 292 kts | 262° |
| 2026-05-04 16:03 | 51.66324 | 0.38161 | 13296 ft | 284 kts | 263° |
| 2026-05-04 16:04 | 51.66090 | 0.35001 | 12921 ft | 284 kts | 262° |
| 2026-05-04 16:04 | 51.65622 | 0.28729 | 12199 ft | 282 kts | 262° |
| 2026-05-04 16:04 | 51.65391 | 0.25617 | 11947 ft | 278 kts | 262° |
| 2026-05-04 16:05 | 51.65159 | 0.22524 | 11600 ft | 278 kts | 262° |
| 2026-05-04 16:05 | 51.64932 | 0.19518 | 11481 ft | 268 kts | 262° |
| 2026-05-04 16:05 | 51.64557 | 0.13751 | 11189 ft | 255 kts | 269° |
| 2026-05-04 16:06 | 51.64592 | 0.10888 | 10891 ft | 255 kts | 270° |
| 2026-05-04 16:06 | 51.64739 | 0.03185 | 9908 ft | 263 kts | 272° |
| 2026-05-04 16:07 | 51.64884 | -0.00715 | 9424 ft | 265 kts | 271° |
| 2026-05-04 16:07 | 51.65191 | -0.09581 | 8620 ft | 259 kts | 271° |
| 2026-05-04 16:08 | 51.65285 | -0.12392 | 8437 ft | 245 kts | 271° |
| 2026-05-04 16:08 | 51.63591 | -0.19277 | 7328 ft | 235 kts | 209° |
| 2026-05-04 16:09 | 51.60572 | -0.21243 | 6830 ft | 232 kts | 200° |
| 2026-05-04 16:09 | 51.57479 | -0.21598 | 6107 ft | 232 kts | 157° |
| 2026-05-04 16:10 | 51.55131 | -0.18064 | 5311 ft | 241 kts | 127° |
| 2026-05-04 16:11 | 51.51613 | -0.12447 | 4170 ft | 242 kts | 169° |
| 2026-05-04 16:11 | 51.49988 | -0.12643 | 3864 ft | 231 kts | 201° |
| 2026-05-04 16:12 | 51.46215 | -0.17029 | 2979 ft | 217 kts | 239° |
| 2026-05-04 16:12 | 51.46185 | -0.23240 | 2491 ft | 180 kts | 275° |
| 2026-05-04 16:13 | 51.46352 | -0.27240 | 2065 ft | 181 kts | 276° |
| 2026-05-04 16:13 | 51.46461 | -0.31212 | 1560 ft | 174 kts | 273° |
| 2026-05-04 16:14 | 51.46494 | -0.35015 | 1098 ft | 164 kts | 271° |
| 2026-05-04 16:14 | 51.46504 | -0.38504 | 692 ft | 153 kts | 275° |
| 2026-05-04 16:15 | 51.46490 | -0.43292 | 165 ft | 142 kts | 273° |
| 2026-05-04 16:16 | 51.46487 | -0.45959 | 95 ft | 80 kts | 269° |
| 2026-05-04 16:16 | 51.46565 | -0.46809 | 96 ft | 8 kts | 298° |
| 2026-05-04 16:17 | 51.46578 | -0.46834 | 94 ft | 0 kts | 318° |
| 2026-05-04 16:18 | 51.46638 | -0.46859 | 94 ft | 6 kts | 359° |
| 2026-05-04 16:18 | 51.46681 | -0.46860 | 92 ft | 7 kts | 359° |
| 2026-05-04 16:19 | 51.46747 | -0.47024 | 95 ft | 8 kts | 269° |
| 2026-05-04 16:19 | 51.46746 | -0.47233 | 95 ft | 10 kts | 270° |
| 2026-05-04 16:20 | 51.46745 | -0.47621 | 91 ft | 13 kts | 269° |
| 2026-05-04 16:20 | 51.46744 | -0.47900 | 91 ft | 13 kts | 270° |
| 2026-05-04 16:21 | 51.46745 | -0.48322 | 91 ft | 9 kts | 284° |
| 2026-05-04 16:22 | 51.46857 | -0.48354 | 91 ft | 9 kts | 0° |
| 2026-05-04 16:22 | 51.47064 | -0.48356 | 94 ft | 11 kts | 360° |
| 2026-05-04 16:23 | 51.47241 | -0.48334 | 95 ft | 6 kts | 50° |
| 2026-05-04 16:24 | 51.47248 | -0.48231 | 92 ft | 2 kts | 90° |
| 2026-05-04 16:25 | 51.47248 | -0.48228 | 92 ft | 0 kts | 90° |